createdAt,value
2019-02-21T00:01:28.836Z,95716.45
2019-02-21T00:04:00.516Z,95720.72
2019-02-21T00:06:31.842Z,95712.00
2019-02-21T00:09:04.822Z,95708.09
2019-02-21T00:11:36.352Z,95714.97
2019-02-21T00:14:07.702Z,95707.63
2019-02-21T00:16:40.189Z,95703.98
2019-02-21T00:19:11.791Z,95708.72
2019-02-21T00:21:43.323Z,95706.34
2019-02-21T00:24:15.425Z,95703.51
2019-02-21T00:26:46.622Z,95704.22
2019-02-21T00:29:18.405Z,95700.07
2019-02-21T00:31:49.825Z,95707.38
2019-02-21T00:34:21.527Z,95704.66
2019-02-21T00:36:53.171Z,95700.05
2019-02-21T00:39:24.610Z,95699.45
2019-02-21T00:41:56.150Z,95705.61
2019-02-21T00:44:27.547Z,95702.87
2019-02-21T00:46:59.055Z,95710.92
2019-02-21T00:49:30.489Z,95705.96
2019-02-21T00:52:02.861Z,95699.84
2019-02-21T00:54:34.718Z,95695.98
2019-02-21T00:57:06.310Z,95693.88
2019-02-21T00:59:37.532Z,95700.50
2019-02-21T01:02:09.018Z,95702.27
2019-02-21T01:04:40.575Z,95696.34
2019-02-21T01:07:12.200Z,95696.21
2019-02-21T01:09:43.884Z,95694.44
2019-02-21T01:12:15.171Z,95695.27
2019-02-21T01:14:46.716Z,95689.59
2019-02-21T01:17:18.315Z,95690.41
2019-02-21T01:19:49.789Z,95683.53
2019-02-21T01:22:21.220Z,95681.50
2019-02-21T01:24:53.011Z,95677.93
2019-02-21T01:27:24.674Z,95676.63
2019-02-21T01:29:56.145Z,95681.47
2019-02-21T01:32:27.502Z,95684.53
2019-02-21T01:34:59.319Z,95691.22
2019-02-21T01:37:30.797Z,95695.23
2019-02-21T01:40:02.140Z,95686.86
2019-02-21T01:42:34.080Z,95682.55
2019-02-21T01:45:05.817Z,95678.52
2019-02-21T01:47:37.432Z,95677.59
2019-02-21T01:50:08.987Z,95682.67
2019-02-21T01:52:40.402Z,95679.27
2019-02-21T01:55:11.887Z,95684.22
2019-02-21T01:57:43.491Z,95686.67
2019-02-21T02:00:14.938Z,95691.73
2019-02-21T02:02:46.450Z,95687.37
2019-02-21T02:05:18.107Z,95695.37
2019-02-21T02:07:49.755Z,95692.09
2019-02-21T02:10:21.748Z,95687.77
2019-02-21T02:12:53.283Z,95685.74
2019-02-21T02:15:24.990Z,95688.47
2019-02-21T02:17:57.492Z,95697.19
2019-02-21T02:20:28.902Z,95688.92
2019-02-21T02:23:00.283Z,95693.76
2019-02-21T02:25:32.030Z,95696.46
2019-02-21T02:28:03.528Z,95689.47
2019-02-21T02:30:35.217Z,95697.47
2019-02-21T02:33:06.774Z,95702.33
2019-02-21T02:35:39.326Z,95706.58
2019-02-21T02:38:10.950Z,95699.05
2019-02-21T02:40:42.517Z,95701.30
2019-02-21T02:43:14.269Z,95706.44
2019-02-21T02:45:45.874Z,95709.03
2019-02-21T02:48:17.453Z,95714.41
2019-02-21T02:50:49.344Z,95720.74
2019-02-21T02:53:21.005Z,95713.84
2019-02-21T02:55:52.268Z,95713.20
2019-02-21T02:58:23.941Z,95720.13
2019-02-21T03:00:55.579Z,95718.45
2019-02-21T03:03:27.017Z,95723.34
2019-02-21T03:05:58.681Z,95720.69
2019-02-21T03:08:30.262Z,95717.25
2019-02-21T03:11:01.973Z,95723.72
2019-02-21T03:13:33.433Z,95725.21
2019-02-21T03:16:05.146Z,95721.33
2019-02-21T03:18:36.520Z,95729.38
2019-02-21T03:21:08.054Z,95734.24
2019-02-21T03:23:39.561Z,95743.81
2019-02-21T03:26:11.440Z,95744.28
2019-02-21T03:28:42.822Z,95749.30
2019-02-21T03:31:14.156Z,95755.14
2019-02-21T03:33:46.574Z,95761.30
2019-02-21T03:36:18.141Z,95753.58
2019-02-21T03:38:49.890Z,95754.67
2019-02-21T03:41:21.402Z,95761.54
2019-02-21T03:43:53.063Z,95766.98
2019-02-21T03:46:24.456Z,95766.83
2019-02-21T03:48:55.970Z,95767.53
2019-02-21T03:51:27.461Z,95766.82
2019-02-21T03:53:59.095Z,95771.80
2019-02-21T03:56:30.787Z,95769.02
2019-02-21T03:59:02.273Z,95780.34
2019-02-21T04:01:34.652Z,95774.76
2019-02-21T04:04:06.164Z,95770.30
2019-02-21T04:06:37.618Z,95773.67
2019-02-21T04:09:10.050Z,95781.81
2019-02-21T04:11:41.285Z,95790.70
2019-02-21T04:14:12.910Z,95785.80
2019-02-21T04:16:44.367Z,95783.22
2019-02-21T04:19:15.829Z,95782.52
2019-02-21T04:21:47.424Z,95793.28
2019-02-21T04:24:20.264Z,95803.16
2019-02-21T04:26:51.490Z,95804.34
2019-02-21T04:29:23.166Z,95798.15
2019-02-21T04:31:54.839Z,95802.11
2019-02-21T04:34:26.441Z,95818.31
2019-02-21T04:36:57.913Z,95819.79
2019-02-21T04:39:29.525Z,95825.72
2019-02-21T04:42:00.746Z,95817.61
2019-02-21T04:44:32.367Z,95822.47
2019-02-21T04:47:03.701Z,95833.34
2019-02-21T04:49:35.088Z,95834.98
2019-02-21T04:52:06.291Z,95825.94
2019-02-21T04:54:37.674Z,95822.91
2019-02-21T04:57:09.024Z,95836.45
2019-02-21T04:59:40.310Z,95833.48
2019-02-21T05:02:11.737Z,95841.67
2019-02-21T05:04:43.038Z,95840.61
2019-02-21T05:07:14.421Z,95832.53
2019-02-21T05:09:57.043Z,95832.89
2019-02-21T05:12:19.545Z,95835.72
2019-02-21T05:14:50.761Z,95840.13
2019-02-21T05:17:22.151Z,95841.83
2019-02-21T05:19:53.448Z,95849.02
2019-02-21T05:22:25.030Z,95858.94
2019-02-21T05:24:56.649Z,95857.42
2019-02-21T05:27:31.565Z,95855.47
2019-02-21T05:30:03.015Z,95858.06
2019-02-21T05:32:53.195Z,95856.52
2019-02-21T05:35:31.529Z,95855.84
2019-02-21T05:38:22.000Z,95862.30
2019-02-21T05:41:04.629Z,95868.08
2019-02-21T05:43:54.977Z,95863.75
2019-02-21T05:46:32.926Z,95866.80
2019-02-21T05:49:16.689Z,95874.91
2019-02-21T05:52:01.597Z,95885.94
2019-02-21T05:54:51.992Z,95881.85
2019-02-21T05:57:48.364Z,95881.20
2019-02-21T06:00:37.674Z,95880.53
2019-02-21T06:03:13.981Z,95891.21
2019-02-21T06:06:10.113Z,95894.23
2019-02-21T06:09:00.337Z,95894.41
2019-02-21T06:11:48.885Z,95895.67
2019-02-21T06:14:45.386Z,95903.61
2019-02-21T06:17:34.407Z,95900.19
2019-02-21T06:20:23.514Z,95905.64
2019-02-21T06:23:12.573Z,95912.98
2019-02-21T06:26:02.830Z,95909.41
2019-02-21T06:28:42.474Z,95922.30
2019-02-21T06:31:16.881Z,95924.23
2019-02-21T06:33:49.484Z,95931.69
2019-02-21T06:36:20.927Z,95935.10
2019-02-21T06:38:52.469Z,95928.48
2019-02-21T06:41:23.855Z,95935.19
2019-02-21T06:43:56.850Z,95937.75
2019-02-21T06:46:28.520Z,95939.79
2019-02-21T06:49:00.022Z,95939.38
2019-02-21T06:51:31.373Z,95946.42
2019-02-21T06:54:02.838Z,95949.37
2019-02-21T06:56:34.433Z,95955.30
2019-02-21T06:59:05.799Z,95947.92
2019-02-21T07:01:37.363Z,95953.33
2019-02-21T07:04:08.980Z,95949.39
2019-02-21T07:06:42.097Z,95952.13
2019-02-21T07:09:13.612Z,95951.63
2019-02-21T07:11:46.009Z,95955.03
2019-02-21T07:14:17.644Z,95957.11
2019-02-21T07:16:49.097Z,95957.62
2019-02-21T07:19:20.635Z,95961.46
2019-02-21T07:21:52.227Z,95968.97
2019-02-21T07:24:24.075Z,95968.06
2019-02-21T07:26:55.436Z,95964.53
2019-02-21T07:29:26.906Z,95968.31
2019-02-21T07:31:58.445Z,95968.45
2019-02-21T07:34:30.592Z,95969.42
2019-02-21T07:37:02.043Z,95974.40
2019-02-21T07:39:36.337Z,95972.36
2019-02-21T07:42:07.117Z,95968.00
2019-02-21T07:44:38.869Z,95966.69
2019-02-21T07:47:10.532Z,95963.50
2019-02-21T07:49:42.254Z,95969.55
2019-02-21T07:52:13.690Z,95966.81
2019-02-21T07:54:44.951Z,95973.93
2019-02-21T07:57:16.594Z,95972.50
2019-02-21T07:59:47.932Z,95966.69
2019-02-21T08:02:21.052Z,95967.84
2019-02-21T08:04:52.771Z,95964.53
2019-02-21T08:07:26.273Z,95962.14
2019-02-21T08:09:58.517Z,95965.39
2019-02-21T08:12:30.048Z,95968.87
2019-02-21T08:15:01.879Z,95953.70
2019-02-21T08:17:34.423Z,95961.47
2019-02-21T08:20:08.765Z,95964.27
2019-02-21T08:22:39.507Z,95961.84
2019-02-21T08:25:11.296Z,95966.57
2019-02-21T08:27:42.740Z,95963.38
2019-02-21T08:30:15.413Z,95960.83
2019-02-21T08:33:14.477Z,95962.23
2019-02-21T08:35:46.075Z,95958.33
2019-02-21T08:38:17.714Z,95953.76
2019-02-21T08:40:49.170Z,95952.48
2019-02-21T08:43:20.922Z,95949.25
2019-02-21T08:45:52.218Z,95956.44
2019-02-21T08:48:23.612Z,95963.03
2019-02-21T08:50:55.192Z,95959.59
2019-02-21T08:53:28.081Z,95959.70
2019-02-21T08:56:00.006Z,95962.42
2019-02-21T08:58:31.249Z,95968.22
2019-02-21T09:01:03.237Z,95969.20
2019-02-21T09:03:35.170Z,95965.62
2019-02-21T09:06:07.082Z,95959.73
2019-02-21T09:08:38.132Z,95964.21
2019-02-21T09:11:09.804Z,95964.55
2019-02-21T09:13:41.790Z,95969.55
2019-02-21T09:16:13.270Z,95960.81
2019-02-21T09:18:44.395Z,95962.81
2019-02-21T09:21:15.969Z,95962.67
2019-02-21T09:23:47.465Z,95956.02
2019-02-21T09:26:21.459Z,95962.81
2019-02-21T09:28:51.883Z,95967.06
2019-02-21T09:31:23.565Z,95961.44
2019-02-21T09:33:55.444Z,95958.14
2019-02-21T09:36:26.954Z,95965.03
2019-02-21T09:38:58.091Z,95964.48
2019-02-21T09:41:29.460Z,95964.98
2019-02-21T09:44:00.839Z,95963.42
2019-02-21T09:46:32.467Z,95962.10
2019-02-21T09:49:03.876Z,95958.08
2019-02-21T09:51:36.627Z,95959.64
2019-02-21T09:54:08.025Z,95954.08
2019-02-21T09:56:39.222Z,95951.66
2019-02-21T09:59:10.544Z,95946.13
2019-02-21T10:01:41.769Z,95949.47
2019-02-21T10:04:12.995Z,95945.97
2019-02-21T10:06:44.298Z,95942.88
2019-02-21T10:09:15.557Z,95947.56
2019-02-21T10:11:46.779Z,95944.94
2019-02-21T10:14:18.087Z,95944.11
2019-02-21T10:16:49.742Z,95947.98
2019-02-21T10:19:21.142Z,95942.04
2019-02-21T10:21:52.498Z,95932.09
2019-02-21T10:24:23.552Z,95930.70
2019-02-21T10:26:54.979Z,95927.31
2019-02-21T10:29:26.201Z,95919.72
2019-02-21T10:31:57.766Z,95917.81
2019-02-21T10:34:29.029Z,95918.39
2019-02-21T10:37:00.414Z,95911.25
2019-02-21T10:39:31.651Z,95914.30
2019-02-21T10:42:02.854Z,95904.97
2019-02-21T10:44:34.000Z,95903.84
2019-02-21T10:47:05.265Z,95897.06
2019-02-21T10:49:36.335Z,95891.30
2019-02-21T10:52:07.555Z,95891.85
2019-02-21T10:54:38.828Z,95878.11
2019-02-21T10:57:10.075Z,95890.88
2019-02-21T10:59:46.575Z,95887.75
2019-02-21T11:02:15.645Z,95883.60
2019-02-21T11:04:54.338Z,95877.87
2019-02-21T11:07:20.354Z,95880.17
2019-02-21T11:09:51.800Z,95877.44
2019-02-21T11:12:22.906Z,95873.72
2019-02-21T11:14:54.231Z,95863.13
2019-02-21T11:17:25.941Z,95860.63
2019-02-21T11:19:57.143Z,95857.90
2019-02-21T11:22:28.333Z,95857.34
2019-02-21T11:24:59.620Z,95851.58
2019-02-21T11:27:31.173Z,95853.19
2019-02-21T11:30:02.167Z,95846.25
2019-02-21T11:32:34.070Z,95845.91
2019-02-21T11:35:06.807Z,95842.70
2019-02-21T11:37:44.287Z,95838.19
2019-02-21T11:40:12.456Z,95837.19
2019-02-21T11:42:43.845Z,95835.20
2019-02-21T11:45:16.184Z,95838.39
2019-02-21T11:47:47.572Z,95837.06
2019-02-21T11:50:19.038Z,95840.59
2019-02-21T11:52:50.323Z,95829.01
2019-02-21T11:55:22.579Z,95823.52
2019-02-21T11:57:53.627Z,95819.14
2019-02-21T12:00:26.452Z,95822.73
2019-02-21T12:02:58.047Z,95817.63
2019-02-21T12:05:31.302Z,95812.25
2019-02-21T12:08:02.563Z,95806.44
2019-02-21T12:10:33.920Z,95811.05
2019-02-21T12:13:05.161Z,95801.27
2019-02-21T12:15:36.424Z,95803.58
2019-02-21T12:18:07.720Z,95800.87
2019-02-21T12:20:39.240Z,95796.92
2019-02-21T12:23:10.652Z,95782.48
2019-02-21T12:25:41.827Z,95798.65
2019-02-21T12:28:13.261Z,95799.08
2019-02-21T12:30:44.713Z,95799.44
2019-02-21T12:33:15.629Z,95794.23
2019-02-21T12:35:46.916Z,95795.77
2019-02-21T12:38:18.132Z,95798.12
2019-02-21T12:40:49.436Z,95793.79
2019-02-21T12:43:20.998Z,95793.17
2019-02-21T12:45:53.750Z,95796.19
2019-02-21T12:48:24.935Z,95792.30
2019-02-21T12:50:56.199Z,95787.00
2019-02-21T12:53:28.180Z,95793.63
2019-02-21T12:55:59.878Z,95795.91
2019-02-21T12:58:31.070Z,95788.45
2019-02-21T13:01:02.311Z,95781.81
2019-02-21T13:03:33.534Z,95778.14
2019-02-21T13:06:04.904Z,95785.31
2019-02-21T13:08:35.999Z,95771.28
2019-02-21T13:11:08.451Z,95783.27
2019-02-21T13:13:39.712Z,95776.91
2019-02-21T13:16:10.753Z,95779.09
2019-02-21T13:18:42.225Z,95777.16
2019-02-21T13:21:13.671Z,95767.55
2019-02-21T13:23:44.975Z,95771.45
2019-02-21T13:26:16.274Z,95763.20
2019-02-21T13:28:47.621Z,95760.17
2019-02-21T13:31:18.892Z,95761.99
2019-02-21T13:33:50.017Z,95762.31
2019-02-21T13:36:21.337Z,95763.34
2019-02-21T13:38:52.510Z,95766.45
2019-02-21T13:41:23.911Z,95763.05
2019-02-21T13:43:55.204Z,95765.23
2019-02-21T13:46:36.904Z,95759.11
2019-02-21T13:48:59.202Z,95757.98
2019-02-21T13:51:30.452Z,95760.26
2019-02-21T13:54:01.389Z,95757.98
2019-02-21T13:56:32.772Z,95758.28
2019-02-21T13:59:03.773Z,95753.47
2019-02-21T14:01:34.937Z,95742.15
2019-02-21T14:04:05.977Z,95756.33
2019-02-21T14:06:37.357Z,95751.12
2019-02-21T14:09:08.969Z,95757.91
2019-02-21T14:11:40.937Z,95758.64
2019-02-21T14:14:12.323Z,95757.55
2019-02-21T14:16:46.804Z,95752.01
2019-02-21T14:19:16.830Z,95745.52
2019-02-21T14:21:48.142Z,95750.33
2019-02-21T14:24:19.535Z,95744.68
2019-02-21T14:26:50.560Z,95739.81
2019-02-21T14:29:22.200Z,95745.89
2019-02-21T14:31:53.468Z,95742.84
2019-02-21T14:34:24.467Z,95746.22
2019-02-21T14:36:55.824Z,95746.83
2019-02-21T14:39:27.595Z,95734.19
2019-02-21T14:41:58.733Z,95731.23
2019-02-21T14:44:29.938Z,95738.25
2019-02-21T14:47:01.352Z,95738.25
2019-02-21T14:49:32.727Z,95734.48
2019-02-21T14:52:04.414Z,95738.58
2019-02-21T14:54:38.056Z,95736.48
2019-02-21T14:57:09.537Z,95732.47
2019-02-21T14:59:40.875Z,95728.42
2019-02-21T15:02:12.200Z,95735.84
2019-02-21T15:04:43.863Z,95723.90
2019-02-21T15:07:15.501Z,95726.84
2019-02-21T15:09:46.864Z,95737.12
2019-02-21T15:12:18.362Z,95728.84
2019-02-21T15:14:49.696Z,95736.95
2019-02-21T15:17:21.282Z,95729.08
2019-02-21T15:19:52.850Z,95733.13
2019-02-21T15:22:24.489Z,95729.75
2019-02-21T15:24:56.092Z,95729.23
2019-02-21T15:27:27.471Z,95731.70
2019-02-21T15:29:58.724Z,95736.69
2019-02-21T15:32:30.386Z,95736.30
2019-02-21T15:35:01.783Z,95738.81
2019-02-21T15:37:35.060Z,95742.42
2019-02-21T15:40:08.820Z,95740.16
2019-02-21T15:42:40.367Z,95743.89
2019-02-21T15:45:22.329Z,95742.29
2019-02-21T15:47:47.768Z,95742.57
2019-02-21T15:50:20.145Z,95736.12
2019-02-21T15:52:51.823Z,95739.11
2019-02-21T15:55:23.321Z,95733.56
2019-02-21T15:58:03.303Z,95739.73
2019-02-21T16:00:27.966Z,95743.05
2019-02-21T16:02:59.646Z,95738.06
2019-02-21T16:05:31.313Z,95732.38
2019-02-21T16:08:02.954Z,95733.27
2019-02-21T16:10:34.420Z,95738.82
2019-02-21T16:13:05.955Z,95738.14
2019-02-21T16:15:37.490Z,95744.34
2019-02-21T16:18:08.910Z,95749.20
2019-02-21T16:20:42.409Z,95744.81
2019-02-21T16:23:14.039Z,95755.47
2019-02-21T16:25:45.452Z,95758.23
2019-02-21T16:28:16.657Z,95760.28
2019-02-21T16:30:48.244Z,95761.18
2019-02-21T16:33:19.445Z,95768.93
2019-02-21T16:35:51.058Z,95762.48
2019-02-21T16:38:22.587Z,95776.38
2019-02-21T16:40:54.266Z,95779.23
2019-02-21T16:43:26.053Z,95777.27
2019-02-21T16:46:07.349Z,95783.39
2019-02-21T16:48:31.297Z,95785.98
2019-02-21T16:51:02.770Z,95791.22
2019-02-21T16:53:34.584Z,95790.27
2019-02-21T16:56:06.882Z,95794.80
2019-02-21T16:58:38.512Z,95792.69
2019-02-21T17:01:09.964Z,95796.34
2019-02-21T17:03:41.355Z,95793.64
2019-02-21T17:06:12.767Z,95794.34
2019-02-21T17:08:44.421Z,95794.09
2019-02-21T17:11:16.032Z,95793.84
2019-02-21T17:13:47.521Z,95797.12
2019-02-21T17:16:19.026Z,95797.03
2019-02-21T17:18:50.567Z,95794.66
2019-02-21T17:21:21.902Z,95796.27
2019-02-21T17:23:53.914Z,95796.74
2019-02-21T17:26:25.379Z,95794.26
2019-02-21T17:28:56.787Z,95792.81
2019-02-21T17:31:28.123Z,95800.80
2019-02-21T17:33:59.618Z,95791.00
2019-02-21T17:36:32.795Z,95795.97
2019-02-21T17:39:05.047Z,95799.89
2019-02-21T17:41:37.950Z,95799.44
2019-02-21T17:44:09.649Z,95798.69
2019-02-21T17:46:42.402Z,95795.97
2019-02-21T17:49:15.608Z,95796.09
2019-02-21T17:51:48.273Z,95798.58
2019-02-21T17:54:19.736Z,95788.43
2019-02-21T17:56:51.000Z,95789.48
2019-02-21T17:59:22.542Z,95791.03
2019-02-21T18:01:54.042Z,95792.78
2019-02-21T18:04:25.863Z,95791.23
2019-02-21T18:06:57.233Z,95787.56
2019-02-21T18:09:28.831Z,95781.70
2019-02-21T18:12:00.126Z,95780.14
2019-02-21T18:14:31.747Z,95782.98
2019-02-21T18:17:03.456Z,95781.45
2019-02-21T18:19:34.975Z,95787.56
2019-02-21T18:22:06.648Z,95781.92
2019-02-21T18:24:37.901Z,95775.08
2019-02-21T18:27:09.180Z,95783.81
2019-02-21T18:29:40.403Z,95780.52
2019-02-21T18:32:11.697Z,95783.83
2019-02-21T18:34:43.131Z,95773.64
2019-02-21T18:37:14.542Z,95780.36
2019-02-21T18:39:45.951Z,95781.41
2019-02-21T18:42:17.457Z,95778.60
2019-02-21T18:44:48.817Z,95780.03
2019-02-21T18:47:20.215Z,95782.28
2019-02-21T18:49:51.577Z,95786.46
2019-02-21T18:52:22.948Z,95788.09
2019-02-21T18:54:54.209Z,95791.17
2019-02-21T18:57:25.910Z,95789.52
2019-02-21T18:59:57.185Z,95789.72
2019-02-21T19:02:28.634Z,95785.48
2019-02-21T19:05:00.019Z,95788.75
2019-02-21T19:07:31.389Z,95784.47
2019-02-21T19:10:02.918Z,95782.09
2019-02-21T19:12:34.534Z,95782.35
2019-02-21T19:15:06.369Z,95783.39
2019-02-21T19:17:37.797Z,95784.69
2019-02-21T19:20:10.490Z,95786.05
2019-02-21T19:22:41.951Z,95782.52
2019-02-21T19:25:14.039Z,95778.15
2019-02-21T19:27:45.506Z,95783.88
2019-02-21T19:30:21.113Z,95783.08
2019-02-21T19:32:52.797Z,95782.23
2019-02-21T19:35:24.440Z,95784.84
2019-02-21T19:37:56.375Z,95784.16
2019-02-21T19:40:27.915Z,95785.21
2019-02-21T19:43:00.256Z,95776.70
2019-02-21T19:45:32.319Z,95789.20
2019-02-21T19:48:04.533Z,95795.52
2019-02-21T19:50:36.171Z,95788.98
2019-02-21T19:53:07.935Z,95791.52
2019-02-21T19:55:39.475Z,95795.05
2019-02-21T19:58:10.901Z,95795.42
2019-02-21T20:00:42.615Z,95801.98
2019-02-21T20:03:14.200Z,95792.92
2019-02-21T20:05:45.871Z,95797.28
2019-02-21T20:08:21.390Z,95794.64
2019-02-21T20:10:51.258Z,95787.15
2019-02-21T20:13:22.739Z,95780.75
2019-02-21T20:15:54.407Z,95786.28
2019-02-21T20:18:26.099Z,95781.61
2019-02-21T20:20:57.495Z,95780.31
2019-02-21T20:23:29.142Z,95779.88
2019-02-21T20:26:00.800Z,95773.53
2019-02-21T20:28:32.221Z,95769.30
2019-02-21T20:31:05.318Z,95773.30
2019-02-21T20:33:36.923Z,95768.42
2019-02-21T20:36:08.365Z,95770.97
2019-02-21T20:38:39.695Z,95768.22
2019-02-21T20:41:11.055Z,95765.73
2019-02-21T20:43:42.512Z,95764.74
2019-02-21T20:46:14.047Z,95761.45
2019-02-21T20:48:45.369Z,95764.97
2019-02-21T20:51:17.907Z,95763.14
2019-02-21T20:53:49.501Z,95763.41
2019-02-21T20:56:21.278Z,95768.12
2019-02-21T20:58:52.817Z,95752.90
2019-02-21T21:01:24.249Z,95746.52
2019-02-21T21:03:55.738Z,95752.91
2019-02-21T21:06:27.260Z,95745.92
2019-02-21T21:08:58.690Z,95731.60
2019-02-21T21:11:30.131Z,95733.64
2019-02-21T21:14:01.872Z,95732.73
2019-02-21T21:16:33.722Z,95729.08
2019-02-21T21:19:05.521Z,95729.40
2019-02-21T21:21:36.932Z,95724.69
2019-02-21T21:24:08.526Z,95728.28
2019-02-21T21:26:40.011Z,95722.87
2019-02-21T21:29:11.773Z,95722.60
2019-02-21T21:31:43.315Z,95727.87
2019-02-21T21:34:14.808Z,95727.39
2019-02-21T21:36:46.327Z,95721.56
2019-02-21T21:39:18.088Z,95724.59
2019-02-21T21:41:49.615Z,95725.22
2019-02-21T21:44:21.097Z,95719.84
2019-02-21T21:46:52.599Z,95728.11
2019-02-21T21:49:24.325Z,95722.98
2019-02-21T21:51:56.315Z,95725.45
2019-02-21T21:54:27.652Z,95723.69
2019-02-21T21:56:59.336Z,95727.22
2019-02-21T21:59:30.857Z,95724.67
2019-02-21T22:02:02.424Z,95725.68
2019-02-21T22:04:34.268Z,95726.43
2019-02-21T22:07:05.756Z,95723.84
2019-02-21T22:09:37.495Z,95732.70
2019-02-21T22:12:08.841Z,95731.57
2019-02-21T22:14:40.460Z,95734.71
2019-02-21T22:17:11.910Z,95726.97
2019-02-21T22:19:43.420Z,95731.64
2019-02-21T22:22:15.038Z,95721.06
2019-02-21T22:24:46.529Z,95729.65
2019-02-21T22:27:17.993Z,95727.33
2019-02-21T22:29:49.580Z,95729.26
2019-02-21T22:32:21.427Z,95723.88
2019-02-21T22:34:52.972Z,95725.68
2019-02-21T22:37:24.620Z,95728.03
2019-02-21T22:39:56.431Z,95722.50
2019-02-21T22:42:28.030Z,95725.41
2019-02-21T22:44:59.530Z,95727.88
2019-02-21T22:47:31.074Z,95723.21
2019-02-21T22:50:02.673Z,95718.03
2019-02-21T22:52:34.437Z,95715.56
2019-02-21T22:55:09.793Z,95718.95
2019-02-21T22:57:39.789Z,95710.21
2019-02-21T23:01:00.289Z,95708.91
2019-02-21T23:03:52.434Z,95708.17
2019-02-21T23:06:45.772Z,95709.91
2019-02-21T23:09:27.148Z,95706.21
2019-02-21T23:11:52.795Z,95702.42
2019-02-21T23:14:24.334Z,95705.52
2019-02-21T23:16:56.036Z,95702.90
2019-02-21T23:19:27.509Z,95695.57
2019-02-21T23:21:59.187Z,95695.48
2019-02-21T23:24:30.930Z,95699.32
2019-02-21T23:27:02.657Z,95695.20
2019-02-21T23:29:34.478Z,95690.49
2019-02-21T23:32:06.149Z,95687.33
2019-02-21T23:34:39.640Z,95691.02
2019-02-21T23:37:11.450Z,95685.43
2019-02-21T23:39:43.419Z,95681.28
2019-02-21T23:42:14.822Z,95683.40
2019-02-21T23:44:46.488Z,95681.09
2019-02-21T23:47:18.137Z,95679.95
2019-02-21T23:49:49.695Z,95681.66
2019-02-21T23:52:21.476Z,95675.55
2019-02-21T23:54:52.980Z,95676.96
2019-02-21T23:57:24.682Z,95678.45
2019-02-21T23:59:56.326Z,95677.52
